Contact Us:
Email: info@sawbill.com
Phone: (218)663-7150
Fax: (218)663-7980
Mail: 4620 Sawbill Trail
Box 2129
Tofte, MN 55615


Powered by
Movable Type 3.15
 
Sawbill Weather History Archives: September 2007
Current Sawbill Weather History | « August 2007 | October 2007 »


Date

High
Temperature

Low
Temperature

Barometric
Pressure

Relative
Humidity 7AM

9 AM
Temperature

Moisture

Snow

9/30/07 59 52 29.74 94% 54 .04"
9/29/07 59 50 29.80 98% 58 .07"
9/28/07 53 45 30.00 88% 48 0
9/27/07 58 47 29.92 84% 49 .02"
9/26/07 54 47 29.80 96% 43 .07"
9/25/07 58 43 29.97 91% 45 .05"
9/24/07 77 57 29.80 95% 57 .39"
9/23/07 70 47 29.77 79% 68 0
9/22/07 64 47 30.00 84% 53 0
9/21/07 64 46 29.88 96% 47 .27"
9/20/07 59 48 29.62 98% 59 .2"
9/19/07 53 41 29.98 80% 46 0
9/18/07 69 56 29.91 83% 56 1.72"
9/17/07 65 62 29.90 98% 62 .52"
9/16/07 72 44 30.10 75% 49 0
9/15/07 59 32 30.01 82% 42 0
9/14/07 42 32 29.88 85% 32 0
9/13/07 56 34 30.02 64% 38 .24" Trace
9/12/07 58 39 29.71 86% 42 .04"
9/11/07 53 39 29.91 83% 42 0
9/9/07 62 42 30.18 76% 57 .09"
9/8/07 65 48 30.01 78% 51 0
9/7/07 67 51 29.98 82% 54 0
9/6/07 75 57 29.56 90% 57 4.82"
9/5/07 83 68 29.77 84% 71 0
9/4/07 72 56 29.85 78% 63 Trace
9/3/07 77 53 30.00 91% 56 .24"
9/2/07 80 50 29.98 88% 56 0
9/1/07 78 45 29.94 90% 60 .14"
 


Home I Trip Planning I Rentals and Outfitting I Reservations I Campgrounds I Sawbill Store I Sawbill News I Contact

© 1997 - 2017, Sawbill Canoe Outfitters, Inc. I Privacy Policy